sensor_id;sensor_type;location;lat;lon;timestamp;P1;durP1;ratioP1;P2;durP2;ratioP2
68072;SDS011;54862;51.502;7.446;2024-02-16T00:00:46;4.78;;;1.77;;
68072;SDS011;54862;51.502;7.446;2024-02-16T00:03:12;1.27;;;1.20;;
68072;SDS011;54862;51.502;7.446;2024-02-16T00:05:41;2.90;;;1.70;;
68072;SDS011;54862;51.502;7.446;2024-02-16T00:08:10;1.35;;;1.23;;
68072;SDS011;54862;51.502;7.446;2024-02-16T00:10:38;1.30;;;1.20;;
68072;SDS011;54862;51.502;7.446;2024-02-16T00:13:06;2.53;;;1.52;;
68072;SDS011;54862;51.502;7.446;2024-02-16T00:15:32;1.50;;;1.33;;
68072;SDS011;54862;51.502;7.446;2024-02-16T00:17:58;2.05;;;1.50;;
68072;SDS011;54862;51.502;7.446;2024-02-16T00:20:24;2.22;;;1.63;;
68072;SDS011;54862;51.502;7.446;2024-02-16T00:22:50;1.30;;;1.20;;
68072;SDS011;54862;51.502;7.446;2024-02-16T00:25:16;2.65;;;1.80;;
68072;SDS011;54862;51.502;7.446;2024-02-16T00:27:43;1.42;;;1.33;;
68072;SDS011;54862;51.502;7.446;2024-02-16T00:30:11;1.52;;;1.40;;
68072;SDS011;54862;51.502;7.446;2024-02-16T00:32:40;3.13;;;1.30;;
68072;SDS011;54862;51.502;7.446;2024-02-16T00:35:10;1.27;;;1.17;;
68072;SDS011;54862;51.502;7.446;2024-02-16T00:37:38;3.60;;;1.52;;
68072;SDS011;54862;51.502;7.446;2024-02-16T00:40:04;1.40;;;1.00;;
68072;SDS011;54862;51.502;7.446;2024-02-16T00:42:31;3.75;;;1.30;;
68072;SDS011;54862;51.502;7.446;2024-02-16T00:44:57;3.10;;;1.75;;
68072;SDS011;54862;51.502;7.446;2024-02-16T00:47:25;1.95;;;1.38;;
68072;SDS011;54862;51.502;7.446;2024-02-16T00:49:54;3.22;;;1.60;;
68072;SDS011;54862;51.502;7.446;2024-02-16T00:52:25;2.08;;;1.38;;
68072;SDS011;54862;51.502;7.446;2024-02-16T00:54:51;1.92;;;1.50;;
68072;SDS011;54862;51.502;7.446;2024-02-16T00:57:19;1.92;;;1.20;;
68072;SDS011;54862;51.502;7.446;2024-02-16T00:59:46;1.40;;;1.27;;
68072;SDS011;54862;51.502;7.446;2024-02-16T01:02:14;1.50;;;1.40;;
68072;SDS011;54862;51.502;7.446;2024-02-16T01:04:41;1.25;;;1.25;;
68072;SDS011;54862;51.502;7.446;2024-02-16T01:07:07;2.10;;;1.55;;
68072;SDS011;54862;51.502;7.446;2024-02-16T01:09:33;3.67;;;1.20;;
68072;SDS011;54862;51.502;7.446;2024-02-16T01:12:02;2.05;;;1.45;;
68072;SDS011;54862;51.502;7.446;2024-02-16T01:14:28;1.38;;;1.27;;
68072;SDS011;54862;51.502;7.446;2024-02-16T01:16:56;2.53;;;1.50;;
68072;SDS011;54862;51.502;7.446;2024-02-16T01:19:22;2.67;;;1.63;;
68072;SDS011;54862;51.502;7.446;2024-02-16T01:21:48;2.65;;;1.83;;
68072;SDS011;54862;51.502;7.446;2024-02-16T01:24:18;2.55;;;1.48;;
68072;SDS011;54862;51.502;7.446;2024-02-16T01:26:46;2.13;;;1.42;;
68072;SDS011;54862;51.502;7.446;2024-02-16T01:29:12;2.15;;;1.30;;
68072;SDS011;54862;51.502;7.446;2024-02-16T01:31:38;2.03;;;1.50;;
68072;SDS011;54862;51.502;7.446;2024-02-16T01:34:04;2.35;;;1.40;;
68072;SDS011;54862;51.502;7.446;2024-02-16T01:36:30;1.42;;;1.33;;
68072;SDS011;54862;51.502;7.446;2024-02-16T01:38:55;5.20;;;1.52;;
68072;SDS011;54862;51.502;7.446;2024-02-16T01:41:21;1.48;;;1.35;;
68072;SDS011;54862;51.502;7.446;2024-02-16T01:43:47;3.85;;;1.50;;
68072;SDS011;54862;51.502;7.446;2024-02-16T01:46:13;2.85;;;1.55;;
68072;SDS011;54862;51.502;7.446;2024-02-16T01:48:39;2.40;;;1.40;;
68072;SDS011;54862;51.502;7.446;2024-02-16T01:51:08;2.85;;;1.63;;
68072;SDS011;54862;51.502;7.446;2024-02-16T01:53:34;1.83;;;1.33;;
68072;SDS011;54862;51.502;7.446;2024-02-16T01:56:04;1.45;;;1.35;;
68072;SDS011;54862;51.502;7.446;2024-02-16T01:58:33;1.60;;;1.30;;
68072;SDS011;54862;51.502;7.446;2024-02-16T02:01:04;1.30;;;1.27;;
68072;SDS011;54862;51.502;7.446;2024-02-16T02:03:32;2.17;;;1.30;;
68072;SDS011;54862;51.502;7.446;2024-02-16T02:06:00;2.72;;;1.35;;
68072;SDS011;54862;51.502;7.446;2024-02-16T02:08:28;3.42;;;1.60;;
68072;SDS011;54862;51.502;7.446;2024-02-16T02:10:54;2.15;;;1.20;;
68072;SDS011;54862;51.502;7.446;2024-02-16T02:13:20;1.52;;;1.42;;
68072;SDS011;54862;51.502;7.446;2024-02-16T02:15:47;1.83;;;1.50;;
68072;SDS011;54862;51.502;7.446;2024-02-16T02:18:17;3.03;;;1.70;;
68072;SDS011;54862;51.502;7.446;2024-02-16T02:20:44;1.92;;;1.48;;
68072;SDS011;54862;51.502;7.446;2024-02-16T02:23:10;2.83;;;1.50;;
68072;SDS011;54862;51.502;7.446;2024-02-16T02:25:38;1.73;;;1.45;;
68072;SDS011;54862;51.502;7.446;2024-02-16T02:28:07;2.88;;;1.70;;
68072;SDS011;54862;51.502;7.446;2024-02-16T02:30:33;1.80;;;1.40;;
68072;SDS011;54862;51.502;7.446;2024-02-16T02:32:59;6.45;;;1.60;;
68072;SDS011;54862;51.502;7.446;2024-02-16T02:35:28;1.75;;;1.40;;
68072;SDS011;54862;51.502;7.446;2024-02-16T02:37:54;1.95;;;1.40;;
68072;SDS011;54862;51.502;7.446;2024-02-16T02:40:19;2.28;;;1.23;;
68072;SDS011;54862;51.502;7.446;2024-02-16T02:42:45;1.45;;;1.38;;
68072;SDS011;54862;51.502;7.446;2024-02-16T02:45:11;1.40;;;1.30;;
68072;SDS011;54862;51.502;7.446;2024-02-16T02:47:40;2.25;;;1.38;;
68072;SDS011;54862;51.502;7.446;2024-02-16T02:50:06;2.05;;;1.48;;
68072;SDS011;54862;51.502;7.446;2024-02-16T02:52:33;1.48;;;1.33;;
68072;SDS011;54862;51.502;7.446;2024-02-16T02:54:59;2.25;;;1.52;;
68072;SDS011;54862;51.502;7.446;2024-02-16T02:57:25;2.60;;;1.30;;
68072;SDS011;54862;51.502;7.446;2024-02-16T02:59:50;1.30;;;1.20;;
68072;SDS011;54862;51.502;7.446;2024-02-16T03:02:19;1.88;;;1.50;;
68072;SDS011;54862;51.502;7.446;2024-02-16T03:04:45;1.75;;;1.58;;
68072;SDS011;54862;51.502;7.446;2024-02-16T03:07:13;1.17;;;1.17;;
68072;SDS011;54862;51.502;7.446;2024-02-16T03:09:42;1.45;;;1.35;;
68072;SDS011;54862;51.502;7.446;2024-02-16T03:12:11;2.08;;;1.50;;
68072;SDS011;54862;51.502;7.446;2024-02-16T03:14:37;4.18;;;1.45;;
68072;SDS011;54862;51.502;7.446;2024-02-16T03:17:03;1.40;;;1.25;;
68072;SDS011;54862;51.502;7.446;2024-02-16T03:19:31;1.10;;;1.10;;
68072;SDS011;54862;51.502;7.446;2024-02-16T03:21:57;4.00;;;1.60;;
68072;SDS011;54862;51.502;7.446;2024-02-16T03:24:24;3.42;;;1.50;;
68072;SDS011;54862;51.502;7.446;2024-02-16T03:26:52;2.05;;;1.50;;
68072;SDS011;54862;51.502;7.446;2024-02-16T03:29:20;3.15;;;1.40;;
68072;SDS011;54862;51.502;7.446;2024-02-16T03:31:46;1.45;;;1.35;;
68072;SDS011;54862;51.502;7.446;2024-02-16T03:34:12;1.58;;;1.48;;
68072;SDS011;54862;51.502;7.446;2024-02-16T03:36:38;3.38;;;1.40;;
68072;SDS011;54862;51.502;7.446;2024-02-16T03:39:04;1.85;;;1.30;;
68072;SDS011;54862;51.502;7.446;2024-02-16T03:41:33;1.33;;;1.20;;
68072;SDS011;54862;51.502;7.446;2024-02-16T03:44:02;1.48;;;1.33;;
68072;SDS011;54862;51.502;7.446;2024-02-16T03:46:30;1.75;;;1.50;;
68072;SDS011;54862;51.502;7.446;2024-02-16T03:48:56;1.50;;;1.40;;
68072;SDS011;54862;51.502;7.446;2024-02-16T03:51:22;1.63;;;1.40;;
68072;SDS011;54862;51.502;7.446;2024-02-16T03:53:48;2.13;;;1.40;;
68072;SDS011;54862;51.502;7.446;2024-02-16T03:56:20;1.85;;;1.40;;
68072;SDS011;54862;51.502;7.446;2024-02-16T03:58:48;1.60;;;1.42;;
68072;SDS011;54862;51.502;7.446;2024-02-16T04:01:19;1.70;;;1.40;;
68072;SDS011;54862;51.502;7.446;2024-02-16T04:03:48;1.65;;;1.40;;
68072;SDS011;54862;51.502;7.446;2024-02-16T04:06:19;1.38;;;1.30;;
68072;SDS011;54862;51.502;7.446;2024-02-16T04:08:45;1.27;;;1.25;;
68072;SDS011;54862;51.502;7.446;2024-02-16T04:11:14;2.67;;;1.38;;
68072;SDS011;54862;51.502;7.446;2024-02-16T04:13:40;1.98;;;1.50;;
68072;SDS011;54862;51.502;7.446;2024-02-16T04:16:09;1.83;;;1.40;;
68072;SDS011;54862;51.502;7.446;2024-02-16T04:18:37;1.30;;;1.20;;
68072;SDS011;54862;51.502;7.446;2024-02-16T04:21:03;2.85;;;1.75;;
68072;SDS011;54862;51.502;7.446;2024-02-16T04:23:29;1.38;;;1.30;;
68072;SDS011;54862;51.502;7.446;2024-02-16T04:25:55;1.58;;;1.30;;
68072;SDS011;54862;51.502;7.446;2024-02-16T04:28:21;3.22;;;1.20;;
68072;SDS011;54862;51.502;7.446;2024-02-16T04:30:48;2.42;;;1.45;;
68072;SDS011;54862;51.502;7.446;2024-02-16T04:33:19;2.00;;;1.60;;
68072;SDS011;54862;51.502;7.446;2024-02-16T04:35:45;4.95;;;1.55;;
68072;SDS011;54862;51.502;7.446;2024-02-16T04:38:13;2.53;;;1.45;;
68072;SDS011;54862;51.502;7.446;2024-02-16T04:40:41;2.08;;;1.30;;
68072;SDS011;54862;51.502;7.446;2024-02-16T04:43:10;1.35;;;1.30;;
68072;SDS011;54862;51.502;7.446;2024-02-16T04:45:36;2.72;;;1.20;;
68072;SDS011;54862;51.502;7.446;2024-02-16T04:48:05;1.38;;;1.25;;
68072;SDS011;54862;51.502;7.446;2024-02-16T04:50:32;2.42;;;1.50;;
68072;SDS011;54862;51.502;7.446;2024-02-16T04:52:58;2.03;;;1.50;;
68072;SDS011;54862;51.502;7.446;2024-02-16T04:55:27;3.28;;;1.35;;
68072;SDS011;54862;51.502;7.446;2024-02-16T04:57:54;2.15;;;1.40;;
68072;SDS011;54862;51.502;7.446;2024-02-16T05:00:23;2.10;;;1.40;;
68072;SDS011;54862;51.502;7.446;2024-02-16T05:02:49;1.50;;;1.40;;
68072;SDS011;54862;51.502;7.446;2024-02-16T05:05:16;1.30;;;1.30;;
68072;SDS011;54862;51.502;7.446;2024-02-16T05:07:44;1.60;;;1.50;;
68072;SDS011;54862;51.502;7.446;2024-02-16T05:10:12;5.65;;;1.55;;
68072;SDS011;54862;51.502;7.446;2024-02-16T05:12:41;3.83;;;1.60;;
68072;SDS011;54862;51.502;7.446;2024-02-16T05:15:07;2.70;;;1.65;;
68072;SDS011;54862;51.502;7.446;2024-02-16T05:17:34;1.55;;;1.45;;
68072;SDS011;54862;51.502;7.446;2024-02-16T05:20:00;2.03;;;1.63;;
68072;SDS011;54862;51.502;7.446;2024-02-16T05:22:26;4.30;;;2.10;;
68072;SDS011;54862;51.502;7.446;2024-02-16T05:24:52;2.17;;;1.55;;
68072;SDS011;54862;51.502;7.446;2024-02-16T05:27:18;2.05;;;1.58;;
68072;SDS011;54862;51.502;7.446;2024-02-16T05:29:44;1.75;;;1.40;;
68072;SDS011;54862;51.502;7.446;2024-02-16T05:32:10;2.22;;;1.50;;
68072;SDS011;54862;51.502;7.446;2024-02-16T05:34:37;1.27;;;1.20;;
68072;SDS011;54862;51.502;7.446;2024-02-16T05:37:06;1.73;;;1.40;;
68072;SDS011;54862;51.502;7.446;2024-02-16T05:39:33;1.67;;;1.48;;
68072;SDS011;54862;51.502;7.446;2024-02-16T05:42:01;1.60;;;1.50;;
68072;SDS011;54862;51.502;7.446;2024-02-16T05:44:29;2.55;;;1.50;;
68072;SDS011;54862;51.502;7.446;2024-02-16T05:46:57;2.83;;;1.45;;
68072;SDS011;54862;51.502;7.446;2024-02-16T05:49:23;2.08;;;1.33;;
68072;SDS011;54862;51.502;7.446;2024-02-16T05:51:51;1.40;;;1.30;;
68072;SDS011;54862;51.502;7.446;2024-02-16T05:54:36;1.60;;;1.50;;
68072;SDS011;54862;51.502;7.446;2024-02-16T05:57:03;1.50;;;1.40;;
68072;SDS011;54862;51.502;7.446;2024-02-16T05:59:29;2.20;;;1.60;;
68072;SDS011;54862;51.502;7.446;2024-02-16T06:01:55;2.67;;;1.60;;
68072;SDS011;54862;51.502;7.446;2024-02-16T06:04:22;1.40;;;1.30;;
68072;SDS011;54862;51.502;7.446;2024-02-16T06:06:48;5.18;;;1.70;;
68072;SDS011;54862;51.502;7.446;2024-02-16T06:09:17;2.80;;;1.75;;
68072;SDS011;54862;51.502;7.446;2024-02-16T06:11:46;2.75;;;1.67;;
68072;SDS011;54862;51.502;7.446;2024-02-16T06:14:13;1.88;;;1.42;;
68072;SDS011;54862;51.502;7.446;2024-02-16T06:16:40;2.88;;;1.80;;
68072;SDS011;54862;51.502;7.446;2024-02-16T06:19:11;4.13;;;1.60;;
68072;SDS011;54862;51.502;7.446;2024-02-16T06:21:37;1.80;;;1.65;;
68072;SDS011;54862;51.502;7.446;2024-02-16T06:24:03;1.67;;;1.50;;
68072;SDS011;54862;51.502;7.446;2024-02-16T06:26:29;2.47;;;1.58;;
68072;SDS011;54862;51.502;7.446;2024-02-16T06:28:55;2.42;;;1.67;;
68072;SDS011;54862;51.502;7.446;2024-02-16T06:31:26;2.22;;;1.45;;
68072;SDS011;54862;51.502;7.446;2024-02-16T06:33:55;2.70;;;1.73;;
68072;SDS011;54862;51.502;7.446;2024-02-16T06:36:22;5.63;;;1.70;;
68072;SDS011;54862;51.502;7.446;2024-02-16T06:38:48;2.58;;;1.80;;
68072;SDS011;54862;51.502;7.446;2024-02-16T06:41:14;6.05;;;1.80;;
68072;SDS011;54862;51.502;7.446;2024-02-16T06:43:43;4.45;;;1.80;;
68072;SDS011;54862;51.502;7.446;2024-02-16T06:46:09;2.40;;;1.67;;
68072;SDS011;54862;51.502;7.446;2024-02-16T06:48:40;2.08;;;1.58;;
68072;SDS011;54862;51.502;7.446;2024-02-16T06:51:06;2.70;;;1.77;;
68072;SDS011;54862;51.502;7.446;2024-02-16T06:53:32;2.08;;;1.60;;
68072;SDS011;54862;51.502;7.446;2024-02-16T06:55:58;1.98;;;1.45;;
68072;SDS011;54862;51.502;7.446;2024-02-16T06:58:28;2.47;;;1.55;;
68072;SDS011;54862;51.502;7.446;2024-02-16T07:00:54;3.22;;;1.85;;
68072;SDS011;54862;51.502;7.446;2024-02-16T07:03:22;2.70;;;1.40;;
68072;SDS011;54862;51.502;7.446;2024-02-16T07:05:48;2.30;;;1.70;;
68072;SDS011;54862;51.502;7.446;2024-02-16T07:08:14;2.28;;;1.70;;
68072;SDS011;54862;51.502;7.446;2024-02-16T07:10:40;2.53;;;1.67;;
68072;SDS011;54862;51.502;7.446;2024-02-16T07:13:06;2.05;;;1.60;;
68072;SDS011;54862;51.502;7.446;2024-02-16T07:15:32;2.58;;;1.70;;
68072;SDS011;54862;51.502;7.446;2024-02-16T07:18:03;4.30;;;2.05;;
68072;SDS011;54862;51.502;7.446;2024-02-16T07:20:29;2.08;;;1.48;;
68072;SDS011;54862;51.502;7.446;2024-02-16T07:22:55;1.48;;;1.38;;
68072;SDS011;54862;51.502;7.446;2024-02-16T07:25:26;1.77;;;1.40;;
68072;SDS011;54862;51.502;7.446;2024-02-16T07:27:53;1.95;;;1.73;;
68072;SDS011;54862;51.502;7.446;2024-02-16T07:30:19;3.78;;;1.60;;
68072;SDS011;54862;51.502;7.446;2024-02-16T07:32:51;3.42;;;1.60;;
68072;SDS011;54862;51.502;7.446;2024-02-16T07:35:17;5.38;;;1.60;;
68072;SDS011;54862;51.502;7.446;2024-02-16T07:37:43;2.90;;;1.77;;
68072;SDS011;54862;51.502;7.446;2024-02-16T07:40:09;2.42;;;1.70;;
68072;SDS011;54862;51.502;7.446;2024-02-16T07:42:39;3.30;;;1.58;;
68072;SDS011;54862;51.502;7.446;2024-02-16T07:45:07;3.05;;;1.58;;
68072;SDS011;54862;51.502;7.446;2024-02-16T07:47:36;3.70;;;2.05;;
68072;SDS011;54862;51.502;7.446;2024-02-16T07:50:03;1.65;;;1.55;;
68072;SDS011;54862;51.502;7.446;2024-02-16T07:52:31;2.65;;;1.98;;
68072;SDS011;54862;51.502;7.446;2024-02-16T07:54:57;11.48;;;1.80;;
68072;SDS011;54862;51.502;7.446;2024-02-16T07:57:23;3.17;;;2.10;;
68072;SDS011;54862;51.502;7.446;2024-02-16T07:59:54;3.05;;;1.60;;
68072;SDS011;54862;51.502;7.446;2024-02-16T08:02:20;5.95;;;1.75;;
68072;SDS011;54862;51.502;7.446;2024-02-16T08:04:49;3.33;;;1.80;;
68072;SDS011;54862;51.502;7.446;2024-02-16T08:07:15;3.60;;;1.90;;
68072;SDS011;54862;51.502;7.446;2024-02-16T08:09:46;1.45;;;1.35;;
68072;SDS011;54862;51.502;7.446;2024-02-16T08:12:15;2.92;;;1.60;;
68072;SDS011;54862;51.502;7.446;2024-02-16T08:14:41;1.67;;;1.58;;
68072;SDS011;54862;51.502;7.446;2024-02-16T08:17:08;2.15;;;1.58;;
68072;SDS011;54862;51.502;7.446;2024-02-16T08:19:34;3.95;;;1.70;;
68072;SDS011;54862;51.502;7.446;2024-02-16T08:22:01;2.83;;;1.70;;
68072;SDS011;54862;51.502;7.446;2024-02-16T08:24:29;1.98;;;1.50;;
68072;SDS011;54862;51.502;7.446;2024-02-16T08:26:55;3.65;;;1.73;;
68072;SDS011;54862;51.502;7.446;2024-02-16T08:29:21;5.00;;;2.17;;
68072;SDS011;54862;51.502;7.446;2024-02-16T08:31:47;1.63;;;1.42;;
68072;SDS011;54862;51.502;7.446;2024-02-16T08:34:16;1.70;;;1.60;;
68072;SDS011;54862;51.502;7.446;2024-02-16T08:36:46;2.50;;;1.70;;
68072;SDS011;54862;51.502;7.446;2024-02-16T08:39:15;1.88;;;1.73;;
68072;SDS011;54862;51.502;7.446;2024-02-16T08:41:41;1.63;;;1.52;;
68072;SDS011;54862;51.502;7.446;2024-02-16T08:44:09;2.35;;;1.55;;
68072;SDS011;54862;51.502;7.446;2024-02-16T08:46:35;2.15;;;1.50;;
68072;SDS011;54862;51.502;7.446;2024-02-16T08:49:02;2.22;;;1.58;;
68072;SDS011;54862;51.502;7.446;2024-02-16T08:51:28;2.00;;;1.55;;
68072;SDS011;54862;51.502;7.446;2024-02-16T08:53:54;4.63;;;1.75;;
68072;SDS011;54862;51.502;7.446;2024-02-16T08:56:20;1.60;;;1.50;;
68072;SDS011;54862;51.502;7.446;2024-02-16T08:58:49;2.40;;;1.50;;
68072;SDS011;54862;51.502;7.446;2024-02-16T09:01:15;1.77;;;1.40;;
68072;SDS011;54862;51.502;7.446;2024-02-16T09:03:42;1.60;;;1.50;;
68072;SDS011;54862;51.502;7.446;2024-02-16T09:06:08;2.58;;;1.50;;
68072;SDS011;54862;51.502;7.446;2024-02-16T09:08:34;1.65;;;1.45;;
68072;SDS011;54862;51.502;7.446;2024-02-16T09:11:00;3.45;;;1.63;;
68072;SDS011;54862;51.502;7.446;2024-02-16T09:13:36;3.78;;;1.60;;
68072;SDS011;54862;51.502;7.446;2024-02-16T09:16:02;3.37;;;1.80;;
68072;SDS011;54862;51.502;7.446;2024-02-16T09:18:29;3.08;;;2.00;;
68072;SDS011;54862;51.502;7.446;2024-02-16T09:20:55;1.92;;;1.70;;
68072;SDS011;54862;51.502;7.446;2024-02-16T09:23:21;3.10;;;1.67;;
68072;SDS011;54862;51.502;7.446;2024-02-16T09:25:47;4.35;;;1.92;;
68072;SDS011;54862;51.502;7.446;2024-02-16T09:28:16;1.98;;;1.60;;
68072;SDS011;54862;51.502;7.446;2024-02-16T09:30:47;3.22;;;1.60;;
68072;SDS011;54862;51.502;7.446;2024-02-16T09:33:13;2.97;;;1.75;;
68072;SDS011;54862;51.502;7.446;2024-02-16T09:35:40;1.63;;;1.50;;
68072;SDS011;54862;51.502;7.446;2024-02-16T09:38:06;3.03;;;1.85;;
68072;SDS011;54862;51.502;7.446;2024-02-16T09:40:32;2.28;;;1.58;;
68072;SDS011;54862;51.502;7.446;2024-02-16T09:42:58;3.25;;;1.85;;
68072;SDS011;54862;51.502;7.446;2024-02-16T09:45:24;3.00;;;1.85;;
68072;SDS011;54862;51.502;7.446;2024-02-16T09:47:54;2.13;;;1.70;;
68072;SDS011;54862;51.502;7.446;2024-02-16T09:50:20;2.63;;;1.80;;
68072;SDS011;54862;51.502;7.446;2024-02-16T09:52:47;2.05;;;1.58;;
68072;SDS011;54862;51.502;7.446;2024-02-16T09:55:14;3.80;;;1.80;;
68072;SDS011;54862;51.502;7.446;2024-02-16T09:57:41;2.67;;;1.90;;
68072;SDS011;54862;51.502;7.446;2024-02-16T10:00:11;3.35;;;1.70;;
68072;SDS011;54862;51.502;7.446;2024-02-16T10:02:45;2.75;;;1.55;;
68072;SDS011;54862;51.502;7.446;2024-02-16T10:07:37;3.10;;;1.60;;
68072;SDS011;54862;51.502;7.446;2024-02-16T10:10:06;4.45;;;1.70;;
68072;SDS011;54862;51.502;7.446;2024-02-16T10:12:32;3.38;;;1.80;;
68072;SDS011;54862;51.502;7.446;2024-02-16T10:14:58;2.30;;;1.60;;
68072;SDS011;54862;51.502;7.446;2024-02-16T10:17:25;5.40;;;1.85;;
68072;SDS011;54862;51.502;7.446;2024-02-16T10:19:58;7.30;;;1.92;;
68072;SDS011;54862;51.502;7.446;2024-02-16T10:22:31;2.92;;;1.45;;
68072;SDS011;54862;51.502;7.446;2024-02-16T10:25:10;2.67;;;1.88;;
68072;SDS011;54862;51.502;7.446;2024-02-16T10:27:38;2.88;;;1.75;;
68072;SDS011;54862;51.502;7.446;2024-02-16T10:30:05;3.60;;;1.70;;
68072;SDS011;54862;51.502;7.446;2024-02-16T10:32:38;4.68;;;1.70;;
68072;SDS011;54862;51.502;7.446;2024-02-16T10:35:05;1.88;;;1.67;;
68072;SDS011;54862;51.502;7.446;2024-02-16T10:37:32;10.80;;;2.00;;
68072;SDS011;54862;51.502;7.446;2024-02-16T10:39:59;3.38;;;1.50;;
68072;SDS011;54862;51.502;7.446;2024-02-16T10:42:27;2.83;;;1.60;;
68072;SDS011;54862;51.502;7.446;2024-02-16T10:44:53;8.43;;;1.73;;
68072;SDS011;54862;51.502;7.446;2024-02-16T10:47:20;2.30;;;1.60;;
68072;SDS011;54862;51.502;7.446;2024-02-16T10:49:46;3.47;;;1.65;;
68072;SDS011;54862;51.502;7.446;2024-02-16T10:52:12;8.43;;;2.08;;
68072;SDS011;54862;51.502;7.446;2024-02-16T10:54:40;2.97;;;1.90;;
68072;SDS011;54862;51.502;7.446;2024-02-16T10:57:09;2.50;;;1.70;;
68072;SDS011;54862;51.502;7.446;2024-02-16T10:59:41;3.70;;;1.73;;
68072;SDS011;54862;51.502;7.446;2024-02-16T11:02:08;8.85;;;1.80;;
68072;SDS011;54862;51.502;7.446;2024-02-16T11:04:39;3.58;;;1.85;;
68072;SDS011;54862;51.502;7.446;2024-02-16T11:07:38;3.58;;;1.88;;
68072;SDS011;54862;51.502;7.446;2024-02-16T11:09:59;4.15;;;1.90;;
68072;SDS011;54862;51.502;7.446;2024-02-16T11:12:25;3.47;;;2.03;;
68072;SDS011;54862;51.502;7.446;2024-02-16T11:15:00;3.58;;;1.83;;
68072;SDS011;54862;51.502;7.446;2024-02-16T11:17:26;4.80;;;2.00;;
68072;SDS011;54862;51.502;7.446;2024-02-16T11:19:54;4.68;;;1.92;;
68072;SDS011;54862;51.502;7.446;2024-02-16T11:22:20;5.38;;;2.15;;
68072;SDS011;54862;51.502;7.446;2024-02-16T11:24:49;3.17;;;1.80;;
68072;SDS011;54862;51.502;7.446;2024-02-16T11:27:15;4.57;;;1.67;;
68072;SDS011;54862;51.502;7.446;2024-02-16T11:29:44;6.82;;;2.22;;
68072;SDS011;54862;51.502;7.446;2024-02-16T11:32:10;3.22;;;1.60;;
68072;SDS011;54862;51.502;7.446;2024-02-16T11:34:39;6.32;;;2.08;;
68072;SDS011;54862;51.502;7.446;2024-02-16T11:37:05;3.22;;;2.08;;
68072;SDS011;54862;51.502;7.446;2024-02-16T11:39:31;6.75;;;2.30;;
68072;SDS011;54862;51.502;7.446;2024-02-16T11:42:02;5.03;;;1.70;;
68072;SDS011;54862;51.502;7.446;2024-02-16T11:44:30;5.32;;;2.10;;
68072;SDS011;54862;51.502;7.446;2024-02-16T11:47:02;2.65;;;1.77;;
68072;SDS011;54862;51.502;7.446;2024-02-16T11:49:29;2.92;;;2.05;;
68072;SDS011;54862;51.502;7.446;2024-02-16T11:51:55;3.83;;;1.77;;
68072;SDS011;54862;51.502;7.446;2024-02-16T11:54:24;3.63;;;2.05;;
68072;SDS011;54862;51.502;7.446;2024-02-16T11:56:51;6.35;;;2.63;;
68072;SDS011;54862;51.502;7.446;2024-02-16T11:59:19;4.05;;;2.47;;
68072;SDS011;54862;51.502;7.446;2024-02-16T12:01:52;3.40;;;2.00;;
68072;SDS011;54862;51.502;7.446;2024-02-16T12:06:49;4.13;;;1.90;;
68072;SDS011;54862;51.502;7.446;2024-02-16T12:09:16;6.07;;;1.65;;
68072;SDS011;54862;51.502;7.446;2024-02-16T12:11:44;2.38;;;1.67;;
68072;SDS011;54862;51.502;7.446;2024-02-16T12:14:13;4.05;;;2.00;;
68072;SDS011;54862;51.502;7.446;2024-02-16T12:16:39;3.45;;;1.90;;
68072;SDS011;54862;51.502;7.446;2024-02-16T12:19:05;13.05;;;2.78;;
68072;SDS011;54862;51.502;7.446;2024-02-16T12:21:33;7.22;;;2.58;;
68072;SDS011;54862;51.502;7.446;2024-02-16T12:24:00;2.95;;;1.83;;
68072;SDS011;54862;51.502;7.446;2024-02-16T12:26:26;4.80;;;2.17;;
68072;SDS011;54862;51.502;7.446;2024-02-16T12:28:52;2.83;;;1.80;;
68072;SDS011;54862;51.502;7.446;2024-02-16T12:31:18;4.70;;;2.10;;
68072;SDS011;54862;51.502;7.446;2024-02-16T12:33:45;4.47;;;1.88;;
68072;SDS011;54862;51.502;7.446;2024-02-16T12:36:11;3.22;;;1.95;;
68072;SDS011;54862;51.502;7.446;2024-02-16T12:38:37;9.68;;;2.10;;
68072;SDS011;54862;51.502;7.446;2024-02-16T12:41:05;5.38;;;2.25;;
68072;SDS011;54862;51.502;7.446;2024-02-16T12:43:31;5.40;;;2.20;;
68072;SDS011;54862;51.502;7.446;2024-02-16T12:45:57;5.50;;;2.10;;
68072;SDS011;54862;51.502;7.446;2024-02-16T12:48:26;6.85;;;2.42;;
68072;SDS011;54862;51.502;7.446;2024-02-16T12:50:52;4.93;;;1.88;;
68072;SDS011;54862;51.502;7.446;2024-02-16T12:53:18;4.72;;;2.30;;
68072;SDS011;54862;51.502;7.446;2024-02-16T12:55:45;4.93;;;2.20;;
68072;SDS011;54862;51.502;7.446;2024-02-16T12:58:12;4.28;;;2.13;;
68072;SDS011;54862;51.502;7.446;2024-02-16T13:00:38;5.30;;;2.15;;
68072;SDS011;54862;51.502;7.446;2024-02-16T13:03:04;3.72;;;2.30;;
68072;SDS011;54862;51.502;7.446;2024-02-16T13:05:30;3.78;;;1.88;;
68072;SDS011;54862;51.502;7.446;2024-02-16T13:07:59;6.38;;;2.17;;
68072;SDS011;54862;51.502;7.446;2024-02-16T13:10:27;2.60;;;1.63;;
68072;SDS011;54862;51.502;7.446;2024-02-16T13:12:55;4.55;;;1.95;;
68072;SDS011;54862;51.502;7.446;2024-02-16T13:15:21;6.40;;;1.77;;
68072;SDS011;54862;51.502;7.446;2024-02-16T13:17:47;6.10;;;2.45;;
68072;SDS011;54862;51.502;7.446;2024-02-16T13:20:13;3.33;;;1.88;;
68072;SDS011;54862;51.502;7.446;2024-02-16T13:22:43;2.97;;;1.88;;
68072;SDS011;54862;51.502;7.446;2024-02-16T13:25:12;3.45;;;1.95;;
68072;SDS011;54862;51.502;7.446;2024-02-16T13:27:40;3.22;;;2.00;;
68072;SDS011;54862;51.502;7.446;2024-02-16T13:30:06;4.88;;;1.92;;
68072;SDS011;54862;51.502;7.446;2024-02-16T13:32:35;6.25;;;2.28;;
68072;SDS011;54862;51.502;7.446;2024-02-16T13:35:06;8.30;;;2.22;;
68072;SDS011;54862;51.502;7.446;2024-02-16T13:37:32;5.32;;;2.22;;
68072;SDS011;54862;51.502;7.446;2024-02-16T13:39:58;5.85;;;2.25;;
68072;SDS011;54862;51.502;7.446;2024-02-16T13:42:27;3.53;;;1.80;;
68072;SDS011;54862;51.502;7.446;2024-02-16T13:44:53;5.28;;;2.38;;
68072;SDS011;54862;51.502;7.446;2024-02-16T13:47:23;4.57;;;2.30;;
68072;SDS011;54862;51.502;7.446;2024-02-16T13:49:49;4.47;;;2.30;;
68072;SDS011;54862;51.502;7.446;2024-02-16T13:52:17;4.82;;;2.42;;
68072;SDS011;54862;51.502;7.446;2024-02-16T13:54:45;4.10;;;2.28;;
68072;SDS011;54862;51.502;7.446;2024-02-16T13:57:11;4.80;;;2.53;;
68072;SDS011;54862;51.502;7.446;2024-02-16T13:59:39;5.30;;;2.35;;
68072;SDS011;54862;51.502;7.446;2024-02-16T14:02:09;6.13;;;2.83;;
68072;SDS011;54862;51.502;7.446;2024-02-16T14:04:35;3.72;;;2.05;;
68072;SDS011;54862;51.502;7.446;2024-02-16T14:07:06;6.00;;;2.25;;
68072;SDS011;54862;51.502;7.446;2024-02-16T14:09:35;5.18;;;2.97;;
68072;SDS011;54862;51.502;7.446;2024-02-16T14:12:03;5.25;;;2.60;;
68072;SDS011;54862;51.502;7.446;2024-02-16T14:14:29;4.97;;;2.35;;
68072;SDS011;54862;51.502;7.446;2024-02-16T14:16:55;6.43;;;2.72;;
68072;SDS011;54862;51.502;7.446;2024-02-16T14:19:24;6.80;;;3.03;;
68072;SDS011;54862;51.502;7.446;2024-02-16T14:21:50;5.13;;;2.75;;
68072;SDS011;54862;51.502;7.446;2024-02-16T14:24:18;11.02;;;2.20;;
68072;SDS011;54862;51.502;7.446;2024-02-16T14:26:45;4.85;;;2.60;;
68072;SDS011;54862;51.502;7.446;2024-02-16T14:29:11;8.73;;;3.83;;
68072;SDS011;54862;51.502;7.446;2024-02-16T14:31:37;8.93;;;3.10;;
68072;SDS011;54862;51.502;7.446;2024-02-16T14:34:03;5.80;;;2.90;;
68072;SDS011;54862;51.502;7.446;2024-02-16T14:36:31;5.82;;;2.53;;
68072;SDS011;54862;51.502;7.446;2024-02-16T14:38:58;5.55;;;2.78;;
68072;SDS011;54862;51.502;7.446;2024-02-16T14:41:24;6.28;;;2.80;;
68072;SDS011;54862;51.502;7.446;2024-02-16T14:43:52;6.00;;;3.10;;
68072;SDS011;54862;51.502;7.446;2024-02-16T14:46:18;6.32;;;2.83;;
68072;SDS011;54862;51.502;7.446;2024-02-16T14:48:45;4.70;;;2.53;;
68072;SDS011;54862;51.502;7.446;2024-02-16T14:51:14;7.20;;;2.78;;
68072;SDS011;54862;51.502;7.446;2024-02-16T14:53:40;7.03;;;3.38;;